sensor_id;sensor_type;location;lat;lon;timestamp;P1;durP1;ratioP1;P2;durP2;ratioP2
72621;SDS011;60665;53.506;9.582;2023-07-20T00:00:22;4.07;;;1.20;;
72621;SDS011;60665;53.506;9.582;2023-07-20T00:02:49;2.30;;;1.05;;
72621;SDS011;60665;53.506;9.582;2023-07-20T00:07:43;3.15;;;0.95;;
72621;SDS011;60665;53.506;9.582;2023-07-20T00:10:09;2.60;;;1.10;;
72621;SDS011;60665;53.506;9.582;2023-07-20T00:12:34;2.22;;;0.85;;
72621;SDS011;60665;53.506;9.582;2023-07-20T00:15:00;2.20;;;1.10;;
72621;SDS011;60665;53.506;9.582;2023-07-20T00:17:25;2.53;;;1.20;;
72621;SDS011;60665;53.506;9.582;2023-07-20T00:19:51;3.40;;;1.15;;
72621;SDS011;60665;53.506;9.582;2023-07-20T00:22:16;2.85;;;1.23;;
72621;SDS011;60665;53.506;9.582;2023-07-20T00:24:41;3.85;;;1.23;;
72621;SDS011;60665;53.506;9.582;2023-07-20T00:27:07;2.90;;;1.30;;
72621;SDS011;60665;53.506;9.582;2023-07-20T00:29:32;9.15;;;1.20;;
72621;SDS011;60665;53.506;9.582;2023-07-20T00:31:58;2.47;;;1.10;;
72621;SDS011;60665;53.506;9.582;2023-07-20T00:34:23;5.68;;;1.00;;
72621;SDS011;60665;53.506;9.582;2023-07-20T00:36:49;2.67;;;1.15;;
72621;SDS011;60665;53.506;9.582;2023-07-20T00:39:14;2.45;;;1.08;;
72621;SDS011;60665;53.506;9.582;2023-07-20T00:41:40;4.05;;;1.40;;
72621;SDS011;60665;53.506;9.582;2023-07-20T00:44:05;3.95;;;1.63;;
72621;SDS011;60665;53.506;9.582;2023-07-20T00:46:31;3.20;;;1.23;;
72621;SDS011;60665;53.506;9.582;2023-07-20T00:48:57;3.30;;;1.38;;
72621;SDS011;60665;53.506;9.582;2023-07-20T00:51:23;2.97;;;1.20;;
72621;SDS011;60665;53.506;9.582;2023-07-20T00:53:50;5.60;;;1.30;;
72621;SDS011;60665;53.506;9.582;2023-07-20T00:56:16;3.15;;;1.63;;
72621;SDS011;60665;53.506;9.582;2023-07-20T00:58:41;2.85;;;1.40;;
72621;SDS011;60665;53.506;9.582;2023-07-20T01:01:07;2.65;;;1.15;;
72621;SDS011;60665;53.506;9.582;2023-07-20T01:03:32;3.17;;;1.33;;
72621;SDS011;60665;53.506;9.582;2023-07-20T01:06:08;4.25;;;1.70;;
72621;SDS011;60665;53.506;9.582;2023-07-20T01:11:22;3.83;;;1.70;;
72621;SDS011;60665;53.506;9.582;2023-07-20T01:14:08;8.07;;;1.65;;
72621;SDS011;60665;53.506;9.582;2023-07-20T01:16:34;3.97;;;1.67;;
72621;SDS011;60665;53.506;9.582;2023-07-20T01:19:00;3.30;;;1.30;;
72621;SDS011;60665;53.506;9.582;2023-07-20T01:21:31;4.85;;;1.60;;
72621;SDS011;60665;53.506;9.582;2023-07-20T01:26:47;3.03;;;1.38;;
72621;SDS011;60665;53.506;9.582;2023-07-20T01:29:47;3.22;;;1.42;;
72621;SDS011;60665;53.506;9.582;2023-07-20T01:32:19;3.55;;;1.40;;
72621;SDS011;60665;53.506;9.582;2023-07-20T01:34:48;4.38;;;1.50;;
72621;SDS011;60665;53.506;9.582;2023-07-20T01:37:16;3.40;;;1.60;;
72621;SDS011;60665;53.506;9.582;2023-07-20T01:39:42;3.42;;;1.67;;
72621;SDS011;60665;53.506;9.582;2023-07-20T01:42:08;3.22;;;1.88;;
72621;SDS011;60665;53.506;9.582;2023-07-20T01:44:33;3.25;;;1.48;;
72621;SDS011;60665;53.506;9.582;2023-07-20T01:46:59;3.70;;;1.60;;
72621;SDS011;60665;53.506;9.582;2023-07-20T01:49:24;4.53;;;1.65;;
72621;SDS011;60665;53.506;9.582;2023-07-20T01:51:49;4.15;;;1.73;;
72621;SDS011;60665;53.506;9.582;2023-07-20T01:54:15;4.22;;;1.83;;
72621;SDS011;60665;53.506;9.582;2023-07-20T01:56:40;3.20;;;1.52;;
72621;SDS011;60665;53.506;9.582;2023-07-20T01:59:05;6.78;;;1.50;;
72621;SDS011;60665;53.506;9.582;2023-07-20T02:01:31;3.50;;;1.70;;
72621;SDS011;60665;53.506;9.582;2023-07-20T02:03:56;3.45;;;1.42;;
72621;SDS011;60665;53.506;9.582;2023-07-20T02:06:22;3.22;;;1.40;;
72621;SDS011;60665;53.506;9.582;2023-07-20T02:08:47;5.28;;;1.40;;
72621;SDS011;60665;53.506;9.582;2023-07-20T02:11:12;3.00;;;1.20;;
72621;SDS011;60665;53.506;9.582;2023-07-20T02:13:38;2.53;;;1.10;;
72621;SDS011;60665;53.506;9.582;2023-07-20T02:16:03;3.50;;;1.55;;
72621;SDS011;60665;53.506;9.582;2023-07-20T02:18:29;2.60;;;1.20;;
72621;SDS011;60665;53.506;9.582;2023-07-20T02:20:54;2.15;;;1.00;;
72621;SDS011;60665;53.506;9.582;2023-07-20T02:23:20;2.42;;;1.05;;
72621;SDS011;60665;53.506;9.582;2023-07-20T02:25:45;2.88;;;1.10;;
72621;SDS011;60665;53.506;9.582;2023-07-20T02:28:13;2.78;;;1.20;;
72621;SDS011;60665;53.506;9.582;2023-07-20T02:30:39;3.90;;;1.10;;
72621;SDS011;60665;53.506;9.582;2023-07-20T02:33:04;2.17;;;1.00;;
72621;SDS011;60665;53.506;9.582;2023-07-20T02:35:31;2.28;;;0.98;;
72621;SDS011;60665;53.506;9.582;2023-07-20T02:37:57;2.50;;;1.02;;
72621;SDS011;60665;53.506;9.582;2023-07-20T02:40:22;2.35;;;1.00;;
72621;SDS011;60665;53.506;9.582;2023-07-20T02:42:48;2.53;;;1.00;;
72621;SDS011;60665;53.506;9.582;2023-07-20T02:45:13;3.28;;;1.25;;
72621;SDS011;60665;53.506;9.582;2023-07-20T02:47:38;2.90;;;1.30;;
72621;SDS011;60665;53.506;9.582;2023-07-20T02:50:06;3.38;;;1.42;;
72621;SDS011;60665;53.506;9.582;2023-07-20T02:52:32;3.30;;;1.38;;
72621;SDS011;60665;53.506;9.582;2023-07-20T02:54:58;3.55;;;1.42;;
72621;SDS011;60665;53.506;9.582;2023-07-20T02:57:23;3.05;;;1.30;;
72621;SDS011;60665;53.506;9.582;2023-07-20T02:59:48;3.92;;;1.80;;
72621;SDS011;60665;53.506;9.582;2023-07-20T03:02:14;4.18;;;1.70;;
72621;SDS011;60665;53.506;9.582;2023-07-20T03:04:39;3.50;;;1.23;;
72621;SDS011;60665;53.506;9.582;2023-07-20T03:07:04;3.22;;;1.70;;
72621;SDS011;60665;53.506;9.582;2023-07-20T03:09:30;3.83;;;1.73;;
72621;SDS011;60665;53.506;9.582;2023-07-20T03:11:55;3.55;;;1.70;;
72621;SDS011;60665;53.506;9.582;2023-07-20T03:14:21;5.35;;;1.90;;
72621;SDS011;60665;53.506;9.582;2023-07-20T03:16:47;4.00;;;2.00;;
72621;SDS011;60665;53.506;9.582;2023-07-20T03:19:13;4.15;;;1.52;;
72621;SDS011;60665;53.506;9.582;2023-07-20T03:21:38;3.47;;;1.63;;
72621;SDS011;60665;53.506;9.582;2023-07-20T03:24:06;3.75;;;2.00;;
72621;SDS011;60665;53.506;9.582;2023-07-20T03:26:33;3.70;;;1.90;;
72621;SDS011;60665;53.506;9.582;2023-07-20T03:28:59;4.15;;;2.40;;
72621;SDS011;60665;53.506;9.582;2023-07-20T03:31:24;3.55;;;1.80;;
72621;SDS011;60665;53.506;9.582;2023-07-20T03:33:49;2.78;;;1.20;;
72621;SDS011;60665;53.506;9.582;2023-07-20T03:36:15;3.20;;;1.40;;
72621;SDS011;60665;53.506;9.582;2023-07-20T03:38:40;3.20;;;1.48;;
72621;SDS011;60665;53.506;9.582;2023-07-20T03:41:05;3.97;;;2.15;;
72621;SDS011;60665;53.506;9.582;2023-07-20T03:43:31;4.13;;;2.17;;
72621;SDS011;60665;53.506;9.582;2023-07-20T03:45:56;4.30;;;2.00;;
72621;SDS011;60665;53.506;9.582;2023-07-20T03:48:22;3.83;;;1.90;;
72621;SDS011;60665;53.506;9.582;2023-07-20T03:50:49;3.92;;;1.50;;
72621;SDS011;60665;53.506;9.582;2023-07-20T03:53:15;4.05;;;2.13;;
72621;SDS011;60665;53.506;9.582;2023-07-20T03:55:41;4.00;;;2.17;;
72621;SDS011;60665;53.506;9.582;2023-07-20T04:00:34;3.20;;;1.37;;
72621;SDS011;60665;53.506;9.582;2023-07-20T04:03:00;5.28;;;1.90;;
72621;SDS011;60665;53.506;9.582;2023-07-20T04:05:25;3.58;;;1.90;;
72621;SDS011;60665;53.506;9.582;2023-07-20T04:07:51;3.80;;;1.55;;
72621;SDS011;60665;53.506;9.582;2023-07-20T04:10:17;3.50;;;1.83;;
72621;SDS011;60665;53.506;9.582;2023-07-20T04:12:43;4.72;;;2.10;;
72621;SDS011;60665;53.506;9.582;2023-07-20T04:15:09;4.80;;;2.10;;
72621;SDS011;60665;53.506;9.582;2023-07-20T04:17:35;3.92;;;2.03;;
72621;SDS011;60665;53.506;9.582;2023-07-20T04:20:00;3.95;;;2.05;;
72621;SDS011;60665;53.506;9.582;2023-07-20T04:22:26;4.03;;;2.20;;
72621;SDS011;60665;53.506;9.582;2023-07-20T04:24:52;3.67;;;2.05;;
72621;SDS011;60665;53.506;9.582;2023-07-20T04:27:17;4.95;;;1.92;;
72621;SDS011;60665;53.506;9.582;2023-07-20T04:29:43;3.42;;;1.73;;
72621;SDS011;60665;53.506;9.582;2023-07-20T04:32:08;3.83;;;2.08;;
72621;SDS011;60665;53.506;9.582;2023-07-20T04:34:34;3.63;;;1.85;;
72621;SDS011;60665;53.506;9.582;2023-07-20T04:37:02;4.00;;;2.00;;
72621;SDS011;60665;53.506;9.582;2023-07-20T04:39:28;4.38;;;2.50;;
72621;SDS011;60665;53.506;9.582;2023-07-20T04:41:53;4.68;;;2.55;;
72621;SDS011;60665;53.506;9.582;2023-07-20T04:44:19;5.00;;;2.67;;
72621;SDS011;60665;53.506;9.582;2023-07-20T04:46:44;4.57;;;2.42;;
72621;SDS011;60665;53.506;9.582;2023-07-20T04:49:10;4.35;;;2.28;;
72621;SDS011;60665;53.506;9.582;2023-07-20T04:51:37;6.15;;;2.70;;
72621;SDS011;60665;53.506;9.582;2023-07-20T04:54:03;3.92;;;2.10;;
72621;SDS011;60665;53.506;9.582;2023-07-20T04:56:28;3.90;;;2.08;;
72621;SDS011;60665;53.506;9.582;2023-07-20T04:58:54;4.00;;;2.33;;
72621;SDS011;60665;53.506;9.582;2023-07-20T05:01:19;5.28;;;2.33;;
72621;SDS011;60665;53.506;9.582;2023-07-20T05:03:45;3.33;;;1.90;;
72621;SDS011;60665;53.506;9.582;2023-07-20T05:06:10;4.80;;;2.35;;
72621;SDS011;60665;53.506;9.582;2023-07-20T05:08:36;4.82;;;2.75;;
72621;SDS011;60665;53.506;9.582;2023-07-20T05:11:01;5.30;;;2.13;;
72621;SDS011;60665;53.506;9.582;2023-07-20T05:13:27;5.03;;;2.50;;
72621;SDS011;60665;53.506;9.582;2023-07-20T05:15:52;4.35;;;2.38;;
72621;SDS011;60665;53.506;9.582;2023-07-20T05:18:18;4.88;;;2.50;;
72621;SDS011;60665;53.506;9.582;2023-07-20T05:20:48;4.75;;;2.42;;
72621;SDS011;60665;53.506;9.582;2023-07-20T05:23:13;4.80;;;2.20;;
72621;SDS011;60665;53.506;9.582;2023-07-20T05:25:39;3.70;;;1.90;;
72621;SDS011;60665;53.506;9.582;2023-07-20T05:28:04;4.40;;;2.28;;
72621;SDS011;60665;53.506;9.582;2023-07-20T05:30:31;3.75;;;2.00;;
72621;SDS011;60665;53.506;9.582;2023-07-20T05:32:56;4.50;;;2.20;;
72621;SDS011;60665;53.506;9.582;2023-07-20T05:35:22;4.93;;;1.90;;
72621;SDS011;60665;53.506;9.582;2023-07-20T05:37:48;3.30;;;1.58;;
72621;SDS011;60665;53.506;9.582;2023-07-20T05:40:16;3.70;;;1.73;;
72621;SDS011;60665;53.506;9.582;2023-07-20T05:42:44;3.88;;;1.70;;
72621;SDS011;60665;53.506;9.582;2023-07-20T05:45:14;5.97;;;1.80;;
72621;SDS011;60665;53.506;9.582;2023-07-20T05:47:40;6.72;;;1.83;;
72621;SDS011;60665;53.506;9.582;2023-07-20T05:50:06;3.40;;;1.40;;
72621;SDS011;60665;53.506;9.582;2023-07-20T05:52:32;3.58;;;1.50;;
72621;SDS011;60665;53.506;9.582;2023-07-20T05:54:57;4.13;;;1.38;;
72621;SDS011;60665;53.506;9.582;2023-07-20T05:57:23;3.00;;;1.20;;
72621;SDS011;60665;53.506;9.582;2023-07-20T05:59:48;3.22;;;1.20;;
72621;SDS011;60665;53.506;9.582;2023-07-20T06:02:14;2.20;;;1.00;;
72621;SDS011;60665;53.506;9.582;2023-07-20T06:04:39;3.17;;;1.50;;
72621;SDS011;60665;53.506;9.582;2023-07-20T06:07:05;2.50;;;1.00;;
72621;SDS011;60665;53.506;9.582;2023-07-20T06:09:32;3.05;;;0.93;;
72621;SDS011;60665;53.506;9.582;2023-07-20T06:11:58;2.47;;;0.90;;
72621;SDS011;60665;53.506;9.582;2023-07-20T06:14:23;2.47;;;0.70;;
72621;SDS011;60665;53.506;9.582;2023-07-20T06:16:48;3.20;;;1.00;;
72621;SDS011;60665;53.506;9.582;2023-07-20T06:19:14;3.38;;;0.90;;
72621;SDS011;60665;53.506;9.582;2023-07-20T06:21:39;2.78;;;0.80;;
72621;SDS011;60665;53.506;9.582;2023-07-20T06:24:05;3.45;;;0.90;;
72621;SDS011;60665;53.506;9.582;2023-07-20T06:26:30;3.47;;;1.42;;
72621;SDS011;60665;53.506;9.582;2023-07-20T06:28:56;2.25;;;0.77;;
72621;SDS011;60665;53.506;9.582;2023-07-20T06:31:21;1.70;;;0.82;;
72621;SDS011;60665;53.506;9.582;2023-07-20T06:33:47;2.70;;;0.75;;
72621;SDS011;60665;53.506;9.582;2023-07-20T06:36:12;1.73;;;0.70;;
72621;SDS011;60665;53.506;9.582;2023-07-20T06:38:38;3.65;;;0.70;;
72621;SDS011;60665;53.506;9.582;2023-07-20T06:41:03;1.08;;;0.68;;
72621;SDS011;60665;53.506;9.582;2023-07-20T06:43:29;1.85;;;0.73;;
72621;SDS011;60665;53.506;9.582;2023-07-20T06:45:54;2.10;;;0.80;;
72621;SDS011;60665;53.506;9.582;2023-07-20T06:48:20;2.15;;;0.80;;
72621;SDS011;60665;53.506;9.582;2023-07-20T06:50:46;2.50;;;0.70;;
72621;SDS011;60665;53.506;9.582;2023-07-20T06:53:12;2.13;;;0.90;;
72621;SDS011;60665;53.506;9.582;2023-07-20T06:55:37;4.43;;;0.75;;
72621;SDS011;60665;53.506;9.582;2023-07-20T06:58:03;2.42;;;0.85;;
72621;SDS011;60665;53.506;9.582;2023-07-20T07:00:28;3.05;;;0.80;;
72621;SDS011;60665;53.506;9.582;2023-07-20T07:02:54;2.10;;;0.63;;
72621;SDS011;60665;53.506;9.582;2023-07-20T07:05:19;1.77;;;0.93;;
72621;SDS011;60665;53.506;9.582;2023-07-20T07:07:45;2.30;;;0.73;;
72621;SDS011;60665;53.506;9.582;2023-07-20T07:10:10;2.05;;;0.90;;
72621;SDS011;60665;53.506;9.582;2023-07-20T07:12:35;2.50;;;0.80;;
72621;SDS011;60665;53.506;9.582;2023-07-20T07:15:02;3.63;;;0.73;;
72621;SDS011;60665;53.506;9.582;2023-07-20T07:17:28;4.40;;;0.90;;
72621;SDS011;60665;53.506;9.582;2023-07-20T07:24:57;2.28;;;0.77;;
72621;SDS011;60665;53.506;9.582;2023-07-20T07:27:22;2.72;;;0.75;;
72621;SDS011;60665;53.506;9.582;2023-07-20T07:29:47;1.80;;;0.60;;
72621;SDS011;60665;53.506;9.582;2023-07-20T07:32:13;3.53;;;0.90;;
72621;SDS011;60665;53.506;9.582;2023-07-20T07:34:38;2.70;;;0.85;;
72621;SDS011;60665;53.506;9.582;2023-07-20T07:39:39;2.90;;;0.82;;
72621;SDS011;60665;53.506;9.582;2023-07-20T07:42:05;5.43;;;1.00;;
72621;SDS011;60665;53.506;9.582;2023-07-20T07:44:30;4.90;;;0.90;;
72621;SDS011;60665;53.506;9.582;2023-07-20T07:46:56;3.85;;;1.20;;
72621;SDS011;60665;53.506;9.582;2023-07-20T07:49:22;3.47;;;0.90;;
72621;SDS011;60665;53.506;9.582;2023-07-20T07:51:47;4.13;;;1.10;;
72621;SDS011;60665;53.506;9.582;2023-07-20T07:54:13;2.85;;;1.10;;
72621;SDS011;60665;53.506;9.582;2023-07-20T07:56:39;6.53;;;1.77;;
72621;SDS011;60665;53.506;9.582;2023-07-20T07:59:04;3.80;;;1.20;;
72621;SDS011;60665;53.506;9.582;2023-07-20T08:01:29;3.88;;;1.02;;
72621;SDS011;60665;53.506;9.582;2023-07-20T08:03:55;5.82;;;1.20;;
72621;SDS011;60665;53.506;9.582;2023-07-20T08:06:21;3.40;;;1.15;;
72621;SDS011;60665;53.506;9.582;2023-07-20T08:08:46;2.85;;;1.02;;
72621;SDS011;60665;53.506;9.582;2023-07-20T08:11:12;4.05;;;1.00;;
72621;SDS011;60665;53.506;9.582;2023-07-20T08:13:38;4.22;;;1.10;;
72621;SDS011;60665;53.506;9.582;2023-07-20T08:16:03;4.22;;;1.20;;
72621;SDS011;60665;53.506;9.582;2023-07-20T08:18:29;4.40;;;1.00;;
72621;SDS011;60665;53.506;9.582;2023-07-20T08:20:54;3.10;;;1.15;;
72621;SDS011;60665;53.506;9.582;2023-07-20T08:23:19;3.97;;;1.10;;
72621;SDS011;60665;53.506;9.582;2023-07-20T08:25:45;3.95;;;1.10;;
72621;SDS011;60665;53.506;9.582;2023-07-20T08:28:14;3.30;;;0.88;;
72621;SDS011;60665;53.506;9.582;2023-07-20T08:30:41;4.80;;;1.10;;
72621;SDS011;60665;53.506;9.582;2023-07-20T08:33:07;3.65;;;1.10;;
72621;SDS011;60665;53.506;9.582;2023-07-20T08:35:34;5.65;;;1.30;;
72621;SDS011;60665;53.506;9.582;2023-07-20T08:37:59;3.35;;;1.25;;
72621;SDS011;60665;53.506;9.582;2023-07-20T08:40:24;3.67;;;1.10;;
72621;SDS011;60665;53.506;9.582;2023-07-20T08:42:50;3.65;;;1.13;;
72621;SDS011;60665;53.506;9.582;2023-07-20T08:45:15;2.75;;;1.00;;
72621;SDS011;60665;53.506;9.582;2023-07-20T08:47:42;2.53;;;1.02;;
72621;SDS011;60665;53.506;9.582;2023-07-20T08:50:09;3.78;;;1.00;;
72621;SDS011;60665;53.506;9.582;2023-07-20T08:52:34;4.00;;;1.02;;
72621;SDS011;60665;53.506;9.582;2023-07-20T08:55:00;3.20;;;1.30;;
72621;SDS011;60665;53.506;9.582;2023-07-20T08:57:28;3.03;;;1.00;;
72621;SDS011;60665;53.506;9.582;2023-07-20T08:59:54;3.63;;;0.88;;
72621;SDS011;60665;53.506;9.582;2023-07-20T09:02:20;3.72;;;1.05;;
72621;SDS011;60665;53.506;9.582;2023-07-20T09:04:48;6.10;;;0.95;;
72621;SDS011;60665;53.506;9.582;2023-07-20T09:07:13;4.47;;;1.00;;
72621;SDS011;60665;53.506;9.582;2023-07-20T09:09:40;4.32;;;1.00;;
72621;SDS011;60665;53.506;9.582;2023-07-20T09:12:12;2.70;;;0.95;;
72621;SDS011;60665;53.506;9.582;2023-07-20T09:14:38;2.38;;;0.60;;
72621;SDS011;60665;53.506;9.582;2023-07-20T09:17:04;1.23;;;0.55;;
72621;SDS011;60665;53.506;9.582;2023-07-20T09:19:29;2.40;;;0.70;;
72621;SDS011;60665;53.506;9.582;2023-07-20T09:21:55;2.25;;;0.77;;
72621;SDS011;60665;53.506;9.582;2023-07-20T09:24:21;2.58;;;0.50;;
72621;SDS011;60665;53.506;9.582;2023-07-20T09:26:47;2.35;;;0.70;;
72621;SDS011;60665;53.506;9.582;2023-07-20T09:29:14;1.88;;;0.60;;
72621;SDS011;60665;53.506;9.582;2023-07-20T09:31:39;3.53;;;0.70;;
72621;SDS011;60665;53.506;9.582;2023-07-20T09:34:05;3.72;;;1.00;;
72621;SDS011;60665;53.506;9.582;2023-07-20T09:36:35;1.88;;;0.68;;
72621;SDS011;60665;53.506;9.582;2023-07-20T09:39:00;1.77;;;0.70;;
72621;SDS011;60665;53.506;9.582;2023-07-20T09:41:26;2.90;;;0.70;;
72621;SDS011;60665;53.506;9.582;2023-07-20T09:43:52;2.28;;;0.60;;
72621;SDS011;60665;53.506;9.582;2023-07-20T09:46:18;2.95;;;0.90;;
72621;SDS011;60665;53.506;9.582;2023-07-20T09:48:51;3.45;;;0.77;;
72621;SDS011;60665;53.506;9.582;2023-07-20T09:51:18;4.90;;;0.85;;
72621;SDS011;60665;53.506;9.582;2023-07-20T09:53:46;2.92;;;0.70;;
72621;SDS011;60665;53.506;9.582;2023-07-20T09:56:13;5.22;;;0.70;;
72621;SDS011;60665;53.506;9.582;2023-07-20T09:58:39;2.53;;;0.80;;
72621;SDS011;60665;53.506;9.582;2023-07-20T10:01:05;2.45;;;0.68;;
72621;SDS011;60665;53.506;9.582;2023-07-20T10:03:32;1.85;;;0.60;;
72621;SDS011;60665;53.506;9.582;2023-07-20T10:06:02;2.70;;;0.70;;
72621;SDS011;60665;53.506;9.582;2023-07-20T10:08:31;4.63;;;0.60;;
72621;SDS011;60665;53.506;9.582;2023-07-20T10:10:59;3.28;;;0.73;;
72621;SDS011;60665;53.506;9.582;2023-07-20T10:13:28;3.20;;;0.60;;
72621;SDS011;60665;53.506;9.582;2023-07-20T10:18:38;3.75;;;0.75;;
72621;SDS011;60665;53.506;9.582;2023-07-20T10:21:06;2.80;;;0.75;;
72621;SDS011;60665;53.506;9.582;2023-07-20T10:23:35;3.13;;;0.73;;
72621;SDS011;60665;53.506;9.582;2023-07-20T10:26:00;2.72;;;0.80;;
72621;SDS011;60665;53.506;9.582;2023-07-20T10:28:26;2.90;;;0.70;;
72621;SDS011;60665;53.506;9.582;2023-07-20T10:30:52;2.60;;;0.70;;
72621;SDS011;60665;53.506;9.582;2023-07-20T10:33:18;2.08;;;0.80;;
72621;SDS011;60665;53.506;9.582;2023-07-20T10:35:54;4.43;;;0.93;;
72621;SDS011;60665;53.506;9.582;2023-07-20T10:41:28;1.85;;;0.77;;
72621;SDS011;60665;53.506;9.582;2023-07-20T10:44:04;1.73;;;0.60;;
72621;SDS011;60665;53.506;9.582;2023-07-20T10:46:33;2.38;;;0.57;;
72621;SDS011;60665;53.506;9.582;2023-07-20T10:49:06;3.17;;;0.50;;
72621;SDS011;60665;53.506;9.582;2023-07-20T10:51:42;1.35;;;0.43;;
72621;SDS011;60665;53.506;9.582;2023-07-20T10:54:54;1.73;;;0.73;;
72621;SDS011;60665;53.506;9.582;2023-07-20T10:56:55;2.10;;;0.55;;
72621;SDS011;60665;53.506;9.582;2023-07-20T10:59:41;1.60;;;0.57;;
72621;SDS011;60665;53.506;9.582;2023-07-20T11:02:06;1.38;;;0.40;;
72621;SDS011;60665;53.506;9.582;2023-07-20T11:04:39;2.97;;;0.63;;
72621;SDS011;60665;53.506;9.582;2023-07-20T11:07:06;2.83;;;0.63;;
72621;SDS011;60665;53.506;9.582;2023-07-20T11:09:34;3.30;;;0.80;;
72621;SDS011;60665;53.506;9.582;2023-07-20T11:12:10;2.58;;;0.70;;
72621;SDS011;60665;53.506;9.582;2023-07-20T11:14:56;1.65;;;0.52;;
72621;SDS011;60665;53.506;9.582;2023-07-20T11:17:28;3.47;;;1.00;;
72621;SDS011;60665;53.506;9.582;2023-07-20T11:20:03;4.07;;;0.80;;
72621;SDS011;60665;53.506;9.582;2023-07-20T11:22:32;1.90;;;0.60;;
72621;SDS011;60665;53.506;9.582;2023-07-20T11:24:58;1.92;;;0.70;;
72621;SDS011;60665;53.506;9.582;2023-07-20T11:27:24;2.72;;;0.60;;
72621;SDS011;60665;53.506;9.582;2023-07-20T11:29:49;1.10;;;0.40;;
72621;SDS011;60665;53.506;9.582;2023-07-20T11:32:22;2.35;;;0.70;;
72621;SDS011;60665;53.506;9.582;2023-07-20T11:34:48;3.20;;;0.60;;
72621;SDS011;60665;53.506;9.582;2023-07-20T11:37:14;2.95;;;0.50;;
72621;SDS011;60665;53.506;9.582;2023-07-20T11:39:40;3.67;;;0.77;;
72621;SDS011;60665;53.506;9.582;2023-07-20T11:42:05;2.75;;;0.85;;
72621;SDS011;60665;53.506;9.582;2023-07-20T11:44:34;1.75;;;0.70;;
72621;SDS011;60665;53.506;9.582;2023-07-20T11:47:03;3.30;;;0.80;;
72621;SDS011;60665;53.506;9.582;2023-07-20T11:49:34;2.35;;;0.80;;
72621;SDS011;60665;53.506;9.582;2023-07-20T11:52:13;2.47;;;0.80;;
72621;SDS011;60665;53.506;9.582;2023-07-20T11:54:40;1.35;;;0.50;;
72621;SDS011;60665;53.506;9.582;2023-07-20T11:57:06;2.92;;;0.77;;
72621;SDS011;60665;53.506;9.582;2023-07-20T11:59:32;1.98;;;0.60;;
72621;SDS011;60665;53.506;9.582;2023-07-20T12:01:58;0.77;;;0.40;;
72621;SDS011;60665;53.506;9.582;2023-07-20T12:04:26;1.35;;;0.43;;
72621;SDS011;60665;53.506;9.582;2023-07-20T12:06:53;1.17;;;0.50;;
72621;SDS011;60665;53.506;9.582;2023-07-20T12:09:18;1.38;;;0.50;;
72621;SDS011;60665;53.506;9.582;2023-07-20T12:11:44;2.38;;;0.60;;
72621;SDS011;60665;53.506;9.582;2023-07-20T12:14:12;0.90;;;0.40;;
72621;SDS011;60665;53.506;9.582;2023-07-20T12:16:38;1.40;;;0.40;;
72621;SDS011;60665;53.506;9.582;2023-07-20T12:21:34;1.95;;;0.57;;
72621;SDS011;60665;53.506;9.582;2023-07-20T12:24:01;2.40;;;0.65;;
72621;SDS011;60665;53.506;9.582;2023-07-20T12:26:28;2.08;;;0.65;;
72621;SDS011;60665;53.506;9.582;2023-07-20T12:28:54;1.67;;;0.57;;
72621;SDS011;60665;53.506;9.582;2023-07-20T12:31:20;1.85;;;0.80;;
72621;SDS011;60665;53.506;9.582;2023-07-20T12:33:47;1.90;;;0.52;;
72621;SDS011;60665;53.506;9.582;2023-07-20T12:36:13;2.53;;;0.60;;
72621;SDS011;60665;53.506;9.582;2023-07-20T12:38:39;3.00;;;0.55;;
72621;SDS011;60665;53.506;9.582;2023-07-20T12:41:06;1.67;;;0.60;;
72621;SDS011;60665;53.506;9.582;2023-07-20T12:43:32;2.03;;;0.65;;
72621;SDS011;60665;53.506;9.582;2023-07-20T12:45:58;1.23;;;0.30;;
72621;SDS011;60665;53.506;9.582;2023-07-20T12:48:23;2.35;;;0.40;;
72621;SDS011;60665;53.506;9.582;2023-07-20T12:50:49;2.05;;;0.40;;
72621;SDS011;60665;53.506;9.582;2023-07-20T12:53:14;1.75;;;0.52;;
72621;SDS011;60665;53.506;9.582;2023-07-20T12:55:39;2.50;;;0.55;;
72621;SDS011;60665;53.506;9.582;2023-07-20T12:58:06;3.85;;;0.60;;
72621;SDS011;60665;53.506;9.582;2023-07-20T13:00:32;1.98;;;0.43;;
72621;SDS011;60665;53.506;9.582;2023-07-20T13:02:57;0.85;;;0.30;;
72621;SDS011;60665;53.506;9.582;2023-07-20T13:05:23;2.00;;;0.50;;
72621;SDS011;60665;53.506;9.582;2023-07-20T13:07:49;1.98;;;0.45;;
72621;SDS011;60665;53.506;9.582;2023-07-20T13:10:14;2.88;;;0.57;;
72621;SDS011;60665;53.506;9.582;2023-07-20T13:12:40;3.38;;;1.15;;
72621;SDS011;60665;53.506;9.582;2023-07-20T13:15:06;3.03;;;0.50;;
72621;SDS011;60665;53.506;9.582;2023-07-20T13:17:32;1.70;;;0.40;;
72621;SDS011;60665;53.506;9.582;2023-07-20T13:20:02;2.30;;;0.57;;
72621;SDS011;60665;53.506;9.582;2023-07-20T13:22:29;2.88;;;0.50;;
72621;SDS011;60665;53.506;9.582;2023-07-20T13:24:55;2.55;;;0.50;;
72621;SDS011;60665;53.506;9.582;2023-07-20T13:27:20;3.47;;;0.50;;
72621;SDS011;60665;53.506;9.582;2023-07-20T13:29:46;1.88;;;0.50;;
72621;SDS011;60665;53.506;9.582;2023-07-20T13:32:15;1.63;;;0.52;;
72621;SDS011;60665;53.506;9.582;2023-07-20T13:34:41;1.48;;;0.73;;
72621;SDS011;60665;53.506;9.582;2023-07-20T13:37:08;2.42;;;0.57;;
72621;SDS011;60665;53.506;9.582;2023-07-20T13:39:34;2.15;;;0.50;;
72621;SDS011;60665;53.506;9.582;2023-07-20T13:41:59;1.00;;;0.30;;
72621;SDS011;60665;53.506;9.582;2023-07-20T13:44:27;1.45;;;0.43;;
72621;SDS011;60665;53.506;9.582;2023-07-20T13:46:52;1.80;;;0.57;;
72621;SDS011;60665;53.506;9.582;2023-07-20T13:49:18;2.33;;;0.70;;
72621;SDS011;60665;53.506;9.582;2023-07-20T13:51:43;1.75;;;0.50;;
72621;SDS011;60665;53.506;9.582;2023-07-20T13:54:10;2.33;;;0.60;;
72621;SDS011;60665;53.506;9.582;2023-07-20T13:56:36;4.13;;;0.70;;
72621;SDS011;60665;53.506;9.582;2023-07-20T13:59:02;3.90;;;0.60;;
72621;SDS011;60665;53.506;9.582;2023-07-20T14:01:27;2.15;;;0.60;;
72621;SDS011;60665;53.506;9.582;2023-07-20T14:03:58;2.00;;;0.57;;
72621;SDS011;60665;53.506;9.582;2023-07-20T14:06:23;2.22;;;0.50;;
72621;SDS011;60665;53.506;9.582;2023-07-20T14:08:48;3.53;;;0.60;;
72621;SDS011;60665;53.506;9.582;2023-07-20T14:11:15;1.65;;;0.43;;
72621;SDS011;60665;53.506;9.582;2023-07-20T14:13:41;3.13;;;1.33;;
72621;SDS011;60665;53.506;9.582;2023-07-20T14:16:06;2.92;;;0.60;;
72621;SDS011;60665;53.506;9.582;2023-07-20T14:18:33;3.85;;;0.93;;
72621;SDS011;60665;53.506;9.582;2023-07-20T14:20:58;2.70;;;0.55;;
72621;SDS011;60665;53.506;9.582;2023-07-20T14:23:24;2.17;;;0.50;;
72621;SDS011;60665;53.506;9.582;2023-07-20T14:25:49;1.98;;;0.65;;
72621;SDS011;60665;53.506;9.582;2023-07-20T14:28:14;3.10;;;1.05;;
72621;SDS011;60665;53.506;9.582;2023-07-20T14:30:40;2.28;;;0.75;;
72621;SDS011;60665;53.506;9.582;2023-07-20T14:33:06;2.20;;;0.75;;
72621;SDS011;60665;53.506;9.582;2023-07-20T14:35:31;2.55;;;0.52;;
72621;SDS011;60665;53.506;9.582;2023-07-20T14:37:57;1.75;;;0.52;;
72621;SDS011;60665;53.506;9.582;2023-07-20T14:40:23;3.13;;;0.82;;
72621;SDS011;60665;53.506;9.582;2023-07-20T14:42:48;3.70;;;0.60;;
72621;SDS011;60665;53.506;9.582;2023-07-20T14:45:14;1.42;;;0.43;;
72621;SDS011;60665;53.506;9.582;2023-07-20T14:47:39;3.92;;;0.68;;
72621;SDS011;60665;53.506;9.582;2023-07-20T14:50:05;2.28;;;0.65;;
72621;SDS011;60665;53.506;9.582;2023-07-20T14:52:31;2.85;;;0.68;;
72621;SDS011;60665;53.506;9.582;2023-07-20T14:54:56;1.63;;;0.55;;
72621;SDS011;60665;53.506;9.582;2023-07-20T14:57:22;2.70;;;0.77;;
72621;SDS011;60665;53.506;9.582;2023-07-20T14:59:49;2.80;;;0.80;;
72621;SDS011;60665;53.506;9.582;2023-07-20T15:02:14;4.07;;;0.82;;
72621;SDS011;60665;53.506;9.582;2023-07-20T15:04:46;2.60;;;0.75;;
72621;SDS011;60665;53.506;9.582;2023-07-20T15:07:16;2.83;;;0.70;;
72621;SDS011;60665;53.506;9.582;2023-07-20T15:09:43;2.33;;;0.63;;